Time;durP1;ratioP1;P1;durP2;ratioP2;P2;SDS_P1;SDS_P2;PMS_P1;PMS_P2;Temp;Humidity;BMP_temperature;BMP_pressure;BME280_temperature;BME280_humidity;BME280_pressure;Samples;Min_cycle;Max_cycle;Signal;HPM_P1;HPM_P2
2023/12/31 00:01:18;;;;;;;41.88;27.48;;;7.20;99.90;;;;;;4954515;28;20442;-51
2023/12/31 00:03:43;;;;;;;39.08;26.23;;;7.30;99.90;;;;;;4954960;28;20067;-53
2023/12/31 00:06:09;;;;;;;45.03;29.27;;;7.40;99.90;;;;;;4954601;28;20416;-50
2023/12/31 00:08:35;;;;;;;38.90;26.83;;;7.40;99.90;;;;;;4954583;29;20059;-55
2023/12/31 00:11:02;;;;;;;45.42;30.52;;;7.40;99.90;;;;;;4951972;29;20407;-53
2023/12/31 00:13:28;;;;;;;39.50;27.38;;;7.40;99.90;;;;;;4936407;29;20525;-49
2023/12/31 00:15:54;;;;;;;48.20;29.42;;;7.40;99.90;;;;;;4951922;29;20079;-54
2023/12/31 00:18:19;;;;;;;44.03;30.50;;;7.60;99.90;;;;;;4954670;28;20039;-51
2023/12/31 00:20:46;;;;;;;43.10;27.65;;;;;;;;;;4935975;29;20051;-51
2023/12/31 00:23:13;;;;;;;39.72;25.75;;;7.80;99.90;;;;;;4954168;28;20387;-54
2023/12/31 00:25:39;;;;;;;38.25;27.40;;;7.80;99.90;;;;;;4936356;29;20094;-50
2023/12/31 00:28:05;;;;;;;38.83;26.60;;;7.90;99.90;;;;;;4953756;29;20047;-50
2023/12/31 00:30:31;;;;;;;33.10;23.55;;;7.90;99.90;;;;;;4953883;28;20070;-53
2023/12/31 00:32:56;;;;;;;29.70;22.05;;;8.00;99.90;;;;;;4952744;29;20031;-51
2023/12/31 00:35:22;;;;;;;28.83;21.25;;;8.00;99.90;;;;;;4953598;29;20074;-52
2023/12/31 00:37:48;;;;;;;35.67;24.65;;;8.00;99.90;;;;;;4903928;29;20082;-53
2023/12/31 00:40:14;;;;;;;30.13;20.65;;;8.00;99.90;;;;;;4954015;29;20035;-50
2023/12/31 00:42:39;;;;;;;27.30;21.00;;;8.00;99.90;;;;;;4951658;29;20093;-53
2023/12/31 00:45:06;;;;;;;26.00;18.17;;;7.90;99.90;;;;;;4953892;29;20475;-53
2023/12/31 00:47:33;;;;;;;24.75;18.33;;;8.00;99.90;;;;;;4935638;29;20039;-51
2023/12/31 00:49:59;;;;;;;25.35;19.55;;;8.00;99.90;;;;;;4953818;29;20031;-50
2023/12/31 00:52:24;;;;;;;24.75;19.15;;;8.10;99.90;;;;;;4953860;29;20494;-52
2023/12/31 00:54:52;;;;;;;27.73;20.60;;;8.10;99.90;;;;;;4953570;29;20038;-53
2023/12/31 00:57:18;;;;;;;31.08;22.17;;;8.00;99.90;;;;;;4953798;29;20043;-53
2023/12/31 00:59:44;;;;;;;36.92;23.92;;;8.00;99.90;;;;;;4953700;29;20054;-50
2023/12/31 01:02:10;;;;;;;33.50;23.23;;;8.00;99.90;;;;;;4953567;29;20495;-49
2023/12/31 01:04:36;;;;;;;35.95;23.30;;;7.80;99.90;;;;;;4953495;29;20114;-54
2023/12/31 01:07:03;;;;;;;29.80;22.13;;;7.80;99.90;;;;;;4953344;29;20089;-53
2023/12/31 01:09:28;;;;;;;34.03;23.90;;;7.80;99.90;;;;;;4953330;29;20114;-52
2023/12/31 01:11:54;;;;;;;43.33;29.05;;;7.80;99.90;;;;;;4953271;29;20115;-53
2023/12/31 01:14:21;;;;;;;60.83;39.53;;;7.80;99.90;;;;;;4934995;29;20055;-50
2023/12/31 01:16:48;;;;;;;44.22;31.63;;;7.70;99.90;;;;;;4953474;29;20050;-53
2023/12/31 01:19:16;;;;;;;31.98;23.23;;;7.60;99.90;;;;;;4953206;29;20058;-56
2023/12/31 01:21:42;;;;;;;33.85;24.17;;;7.40;99.90;;;;;;4904435;29;20066;-51
2023/12/31 01:24:07;;;;;;;39.58;28.45;;;7.40;99.90;;;;;;4953025;29;20027;-53
2023/12/31 01:26:33;;;;;;;38.17;27.85;;;7.50;99.90;;;;;;4952897;29;20061;-50
2023/12/31 01:28:59;;;;;;;39.78;29.58;;;7.50;99.90;;;;;;4953030;29;20059;-57
2023/12/31 01:31:25;;;;;;;59.28;38.80;;;7.40;99.90;;;;;;4952990;29;20039;-47
2023/12/31 01:33:51;;;;;;;43.58;32.63;;;7.30;99.90;;;;;;4912190;29;20078;-51
2023/12/31 01:36:17;;;;;;;46.95;33.03;;;7.40;99.90;;;;;;4911812;29;20568;-51
2023/12/31 01:38:43;;;;;;;41.55;30.27;;;7.50;99.90;;;;;;4912151;29;20063;-53
2023/12/31 01:41:09;;;;;;;43.00;29.65;;;7.50;99.90;;;;;;4912048;29;20068;-55
2023/12/31 01:43:36;;;;;;;39.15;28.58;;;7.40;99.90;;;;;;4849351;29;20043;-54
2023/12/31 01:46:06;;;;;;;44.47;31.33;;;7.50;99.90;;;;;;4911629;29;20056;-50
2023/12/31 01:48:33;;;;;;;47.42;33.58;;;7.60;99.90;;;;;;4911961;29;20104;-53
2023/12/31 01:50:59;;;;;;;53.90;32.28;;;7.60;99.90;;;;;;4912269;29;20504;-54
2023/12/31 01:53:26;;;;;;;52.42;33.17;;;7.60;99.90;;;;;;4912073;29;20503;-51
2023/12/31 01:55:54;;;;;;;45.38;31.23;;;7.60;99.90;;;;;;4912109;29;20127;-49
2023/12/31 01:58:20;;;;;;;45.95;30.73;;;7.50;99.90;;;;;;4912002;29;20044;-50
2023/12/31 02:00:46;;;;;;;45.22;31.55;;;7.50;99.90;;;;;;4911916;29;20052;-53
2023/12/31 02:03:14;;;;;;;50.78;35.05;;;7.50;99.90;;;;;;4912077;29;20040;-49
2023/12/31 02:05:41;;;;;;;32.65;23.88;;;7.40;99.90;;;;;;4911947;29;20492;-56
2023/12/31 02:08:06;;;;;;;30.13;20.75;;;7.10;99.90;;;;;;4911933;29;20072;-50
2023/12/31 02:10:32;;;;;;;31.67;22.05;;;6.20;99.90;;;;;;4919525;29;20059;-55
2023/12/31 02:12:59;;;;;;;27.13;19.67;;;6.00;99.90;;;;;;4902901;29;20392;-51
2023/12/31 02:15:31;;;;;;;29.50;19.70;;;5.90;99.90;;;;;;4952412;29;20051;-51
2023/12/31 02:17:59;;;;;;;25.75;20.55;;;5.70;99.90;;;;;;4952475;29;20035;-45
2023/12/31 02:20:25;;;;;;;26.15;19.80;;;5.80;99.90;;;;;;4952531;29;20051;-52
2023/12/31 02:22:51;;;;;;;31.00;20.92;;;6.10;99.90;;;;;;4952830;29;20062;-50
2023/12/31 02:25:18;;;;;;;31.58;21.65;;;6.20;99.90;;;;;;4952668;29;20062;-57
2023/12/31 02:27:44;;;;;;;39.42;24.02;;;6.20;99.90;;;;;;4952114;29;20067;-54
2023/12/31 02:30:10;;;;;;;59.10;36.63;;;;;;;;;;4952381;29;20077;-50
2023/12/31 02:32:36;;;;;;;34.20;23.63;;;5.90;99.90;;;;;;4902751;29;20125;-51
2023/12/31 02:35:03;;;;;;;36.15;25.90;;;5.40;99.90;;;;;;4902663;29;20487;-52
2023/12/31 02:37:30;;;;;;;36.85;25.42;;;5.60;99.90;;;;;;4952400;29;20093;-52
2023/12/31 02:39:55;;;;;;;35.22;23.75;;;5.90;99.90;;;;;;4952354;29;20113;-54
2023/12/31 02:42:21;;;;;;;35.17;22.95;;;6.10;99.90;;;;;;4952292;29;20566;-49
2023/12/31 02:44:47;;;;;;;32.83;23.83;;;;;;;;;;4952246;29;20027;-51
2023/12/31 02:47:14;;;;;;;31.08;22.17;;;;;;;;;;4952548;29;20391;-54
2023/12/31 02:49:40;;;;;;;32.92;24.33;;;6.30;99.90;;;;;;4952559;29;20039;-52
2023/12/31 02:52:06;;;;;;;29.05;18.65;;;6.40;99.90;;;;;;4952329;29;20038;-52
2023/12/31 02:54:31;;;;;;;28.35;19.38;;;5.80;99.90;;;;;;4955341;28;20042;-56
2023/12/31 02:56:59;;;;;;;28.48;20.23;;;5.30;99.90;;;;;;4955823;29;20047;-50
2023/12/31 02:59:24;;;;;;;30.08;18.67;;;5.00;99.90;;;;;;4955884;29;20050;-53
2023/12/31 03:01:51;;;;;;;30.48;20.58;;;;;;;;;;4955653;29;20034;-56
2023/12/31 03:04:16;;;;;;;37.28;23.25;;;4.60;99.90;;;;;;4955570;29;20067;-52
2023/12/31 03:06:42;;;;;;;31.95;21.55;;;4.50;99.90;;;;;;4955521;29;20123;-53
2023/12/31 03:09:09;;;;;;;32.00;23.77;;;4.60;99.90;;;;;;4955600;29;20027;-53
2023/12/31 03:11:36;;;;;;;34.90;25.45;;;4.60;99.90;;;;;;4955361;29;20423;-50
2023/12/31 03:14:02;;;;;;;36.78;22.70;;;4.70;99.90;;;;;;4955505;29;20399;-53
2023/12/31 03:16:27;;;;;;;31.95;23.98;;;4.60;99.90;;;;;;4955295;29;20043;-52
2023/12/31 03:18:53;;;;;;;37.65;24.95;;;4.80;99.90;;;;;;4955239;29;20146;-55
2023/12/31 03:21:19;;;;;;;34.25;22.60;;;4.40;99.90;;;;;;4955626;29;20031;-48
2023/12/31 03:23:45;;;;;;;35.20;23.65;;;4.30;99.90;;;;;;4955238;29;20078;-54
2023/12/31 03:26:11;;;;;;;28.88;20.25;;;4.30;99.90;;;;;;4955152;29;20483;-55
2023/12/31 03:28:37;;;;;;;29.17;19.33;;;4.30;99.90;;;;;;4955173;29;20035;-47
2023/12/31 03:31:03;;;;;;;27.25;19.02;;;4.40;99.90;;;;;;4952923;29;20049;-51
2023/12/31 03:33:29;;;;;;;24.85;16.35;;;4.40;99.90;;;;;;4905632;29;20486;-52
2023/12/31 03:35:55;;;;;;;17.45;11.73;;;4.40;99.90;;;;;;4954875;29;20047;-51
2023/12/31 03:38:21;;;;;;;22.58;15.50;;;4.30;99.90;;;;;;4955386;29;20046;-51
2023/12/31 03:40:47;;;;;;;22.13;13.77;;;4.30;99.90;;;;;;4955114;29;20097;-51
2023/12/31 03:43:13;;;;;;;23.58;13.80;;;;;;;;;;4955312;29;20047;-52
2023/12/31 03:45:39;;;;;;;18.90;12.30;;;;;;;;;;4955262;29;20079;-54
2023/12/31 03:48:05;;;;;;;15.10;10.05;;;4.00;99.90;;;;;;4954682;29;20566;-53
2023/12/31 03:50:31;;;;;;;18.00;12.98;;;4.10;99.90;;;;;;4954881;29;20086;-47
2023/12/31 03:52:57;;;;;;;17.42;12.70;;;4.10;99.90;;;;;;4954758;29;20039;-50
2023/12/31 03:55:23;;;;;;;18.60;12.40;;;4.10;99.90;;;;;;4954712;29;20085;-47
2023/12/31 03:57:49;;;;;;;16.10;9.35;;;4.10;99.90;;;;;;4954621;29;20563;-55
2023/12/31 04:00:16;;;;;;;12.57;7.88;;;;;;;;;;4920680;29;20138;-52
2023/12/31 04:02:42;;;;;;;13.15;9.00;;;;;;;;;;4955068;29;20073;-52
2023/12/31 04:05:08;;;;;;;16.85;11.13;;;3.90;99.90;;;;;;4953606;28;20039;-53
2023/12/31 04:07:34;;;;;;;20.75;15.27;;;3.80;99.90;;;;;;4954588;29;20046;-53
2023/12/31 04:10:01;;;;;;;21.98;14.77;;;4.10;99.90;;;;;;4904829;29;20130;-53
2023/12/31 04:12:26;;;;;;;27.17;19.73;;;4.50;99.90;;;;;;4954552;29;20032;-50
2023/12/31 04:14:52;;;;;;;26.33;17.33;;;4.60;99.90;;;;;;4954698;29;20666;-53
2023/12/31 04:17:18;;;;;;;19.95;14.93;;;4.90;99.90;;;;;;4954735;29;20056;-50
2023/12/31 04:19:44;;;;;;;20.23;14.82;;;5.10;99.90;;;;;;4954321;29;20039;-49
2023/12/31 04:22:10;;;;;;;22.92;15.85;;;5.20;99.90;;;;;;4954164;29;20042;-49
2023/12/31 04:24:35;;;;;;;20.67;16.90;;;5.40;99.90;;;;;;4953616;29;20038;-50
2023/12/31 04:27:01;;;;;;;22.95;15.88;;;5.20;99.90;;;;;;4953606;29;20744;-53
2023/12/31 04:29:27;;;;;;;20.92;14.95;;;5.30;99.90;;;;;;4954307;29;20069;-50
2023/12/31 04:31:53;;;;;;;19.85;14.63;;;5.40;99.90;;;;;;4954023;29;20499;-50
2023/12/31 04:34:18;;;;;;;23.13;15.88;;;5.30;99.90;;;;;;4954438;29;20472;-50
2023/12/31 04:36:45;;;;;;;20.15;15.85;;;5.50;99.90;;;;;;4953891;29;20073;-52
2023/12/31 04:39:13;;;;;;;21.17;15.90;;;5.70;99.90;;;;;;4953955;29;20039;-53
2023/12/31 04:41:39;;;;;;;18.75;15.32;;;5.60;99.90;;;;;;4954028;29;20049;-50
2023/12/31 04:44:05;;;;;;;22.05;15.93;;;5.60;99.90;;;;;;4954266;29;20039;-47
2023/12/31 04:46:31;;;;;;;22.38;16.75;;;;;;;;;;4953742;29;20035;-52
2023/12/31 04:48:57;;;;;;;23.92;15.98;;;5.70;99.90;;;;;;4953773;29;20039;-50
2023/12/31 04:51:27;;;;;;;24.05;16.95;;;5.80;99.90;;;;;;4935623;29;20517;-54
2023/12/31 04:53:54;;;;;;;26.20;17.92;;;5.80;99.90;;;;;;4953658;29;20446;-53
2023/12/31 04:56:21;;;;;;;28.95;18.73;;;5.90;99.90;;;;;;4953646;29;20039;-54
2023/12/31 04:58:51;;;;;;;27.73;18.83;;;5.50;99.90;;;;;;4919620;29;20522;-49
2023/12/31 05:01:17;;;;;;;26.88;18.92;;;5.20;99.90;;;;;;4953816;29;20031;-53
2023/12/31 05:03:46;;;;;;;26.20;19.63;;;5.10;99.90;;;;;;4953831;29;20041;-52
2023/12/31 05:06:13;;;;;;;26.67;19.98;;;5.20;99.90;;;;;;4953612;29;20109;-53
2023/12/31 05:08:43;;;;;;;27.85;19.30;;;5.00;99.90;;;;;;4953429;29;20074;-51
2023/12/31 05:11:09;;;;;;;24.58;17.20;;;4.80;99.90;;;;;;4953040;29;20503;-50
2023/12/31 05:13:35;;;;;;;25.13;18.58;;;4.90;99.90;;;;;;4953475;29;20382;-56
2023/12/31 05:16:02;;;;;;;34.80;20.02;;;4.80;99.90;;;;;;4934741;29;20055;-49
2023/12/31 05:18:28;;;;;;;23.70;17.45;;;4.70;99.90;;;;;;4953641;29;20043;-52
2023/12/31 05:20:53;;;;;;;24.02;17.42;;;4.60;99.90;;;;;;4953338;29;20487;-51
2023/12/31 05:23:19;;;;;;;23.88;16.63;;;4.90;99.90;;;;;;4950976;29;20035;-55
2023/12/31 05:25:45;;;;;;;19.55;15.18;;;5.00;99.90;;;;;;4953133;29;20039;-53
2023/12/31 05:28:11;;;;;;;26.13;16.88;;;;;;;;;;4952883;29;20062;-50
2023/12/31 05:30:41;;;;;;;26.92;17.33;;;5.50;99.90;;;;;;4953165;29;20019;-49
2023/12/31 05:33:07;;;;;;;24.48;16.67;;;5.70;99.90;;;;;;4953470;29;20047;-53
2023/12/31 05:35:33;;;;;;;24.63;17.73;;;5.90;99.90;;;;;;4953235;29;20062;-53
2023/12/31 05:37:59;;;;;;;24.27;17.80;;;6.00;99.90;;;;;;4952941;29;20483;-53
2023/12/31 05:40:24;;;;;;;25.75;18.30;;;6.10;99.90;;;;;;4953145;29;20068;-52
2023/12/31 05:42:50;;;;;;;23.38;18.60;;;6.10;99.90;;;;;;4953001;29;20031;-54
2023/12/31 05:45:18;;;;;;;27.08;18.17;;;6.20;99.90;;;;;;4952903;29;20031;-52
2023/12/31 05:47:44;;;;;;;26.08;19.33;;;6.00;99.90;;;;;;4953250;29;20059;-50
2023/12/31 05:50:10;;;;;;;34.70;23.45;;;5.70;99.90;;;;;;4953029;29;20047;-50
2023/12/31 05:52:36;;;;;;;44.72;33.45;;;5.10;99.90;;;;;;4952891;29;20098;-52
2023/12/31 05:55:02;;;;;;;32.80;24.75;;;5.10;99.90;;;;;;4952720;29;20034;-53
2023/12/31 05:57:27;;;;;;;31.42;22.83;;;4.90;99.90;;;;;;4953100;29;20680;-54
2023/12/31 05:59:53;;;;;;;28.92;22.73;;;4.60;99.90;;;;;;4953004;29;20094;-51
2023/12/31 06:02:19;;;;;;;41.55;27.17;;;4.50;99.90;;;;;;4952301;29;20062;-50
2023/12/31 06:04:45;;;;;;;35.75;24.60;;;4.30;99.90;;;;;;4952834;29;20032;-52
2023/12/31 06:07:10;;;;;;;28.38;20.00;;;4.20;99.90;;;;;;4952699;29;20376;-54
2023/12/31 06:09:36;;;;;;;29.15;19.23;;;3.90;99.90;;;;;;4952938;29;20023;-47
2023/12/31 06:12:02;;;;;;;30.30;21.63;;;3.60;99.90;;;;;;4952778;29;20035;-49
2023/12/31 06:14:28;;;;;;;31.10;21.35;;;3.70;99.90;;;;;;4952675;29;20114;-52
2023/12/31 06:16:53;;;;;;;27.02;18.23;;;3.80;99.90;;;;;;4934385;29;20051;-55
2023/12/31 06:19:19;;;;;;;24.92;16.23;;;;;;;;;;4952681;29;20069;-49
2023/12/31 06:21:45;;;;;;;23.70;16.55;;;3.50;99.90;;;;;;4952737;29;20042;-47
2023/12/31 06:24:11;;;;;;;24.42;16.48;;;3.50;99.90;;;;;;4952514;29;20035;-50
2023/12/31 06:26:37;;;;;;;23.15;14.65;;;3.30;99.90;;;;;;4952517;29;20051;-51
2023/12/31 06:29:03;;;;;;;19.08;14.75;;;;;;;;;;4954883;28;20070;-56
2023/12/31 06:31:29;;;;;;;21.35;13.25;;;3.10;99.90;;;;;;4956321;29;20090;-55
2023/12/31 06:33:55;;;;;;;21.10;14.93;;;;;;;;;;4955682;29;20035;-51
2023/12/31 06:36:21;;;;;;;18.13;13.95;;;3.60;99.90;;;;;;4922100;29;20134;-53
2023/12/31 06:38:46;;;;;;;20.45;13.88;;;3.60;99.90;;;;;;4956336;29;20115;-50
2023/12/31 06:41:12;;;;;;;21.15;16.15;;;3.70;99.90;;;;;;4956618;29;20431;-52
2023/12/31 06:43:38;;;;;;;21.33;18.88;;;3.80;99.90;;;;;;4906245;29;20059;-50
2023/12/31 06:46:05;;;;;;;19.73;16.30;;;3.90;99.90;;;;;;4956111;29;20039;-50
2023/12/31 06:48:31;;;;;;;20.15;13.80;;;4.00;99.90;;;;;;4956293;29;20101;-51
2023/12/31 06:50:56;;;;;;;19.17;14.63;;;4.30;99.90;;;;;;4956037;29;20553;-50
2023/12/31 06:53:23;;;;;;;17.42;14.30;;;4.60;99.90;;;;;;4955945;29;20031;-53
2023/12/31 06:55:49;;;;;;;16.02;11.32;;;;;;;;;;4955600;29;20182;-53
2023/12/31 06:58:15;;;;;;;20.60;14.10;;;6.40;99.90;;;;;;4954599;29;20039;-51
2023/12/31 07:00:42;;;;;;;19.88;15.43;;;;;;;;;;4955211;29;20027;-49
2023/12/31 07:03:07;;;;;;;23.13;16.33;;;7.70;99.90;;;;;;4955674;29;20027;-55
2023/12/31 07:05:33;;;;;;;19.63;14.85;;;;;;;;;;4954908;28;20468;-56
2023/12/31 07:07:59;;;;;;;26.58;18.27;;;8.80;99.90;;;;;;4955853;29;20357;-51
2023/12/31 07:10:25;;;;;;;28.88;19.38;;;;;;;;;;4955940;29;20038;-53
2023/12/31 07:12:52;;;;;;;26.67;17.67;;;11.10;99.90;;;;;;4955878;29;20114;-54
2023/12/31 07:15:18;;;;;;;29.27;18.73;;;;;;;;;;4955530;29;20075;-52
2023/12/31 07:17:44;;;;;;;26.05;18.98;;;;;;;;;;4954830;29;20039;-49
2023/12/31 07:20:11;;;;;;;105.00;63.47;;;;;;;;;;4955057;29;20039;-52
2023/12/31 07:22:38;;;;;;;20.65;15.43;;;13.40;99.90;;;;;;4954855;29;20403;-53
2023/12/31 07:25:05;;;;;;;18.48;13.85;;;13.90;94.70;;;;;;4954745;29;20046;-53
2023/12/31 07:27:31;;;;;;;16.25;13.00;;;14.80;93.30;;;;;;4888975;29;20066;-51
2023/12/31 07:29:57;;;;;;;18.05;13.82;;;;;;;;;;4954861;29;20039;-50
2023/12/31 07:32:23;;;;;;;29.20;21.10;;;;;;;;;;4954875;29;20030;-53
2023/12/31 07:34:50;;;;;;;29.63;22.13;;;;;;;;;;4954590;29;20038;-56
2023/12/31 07:37:16;;;;;;;49.63;32.33;;;;;;;;;;4952330;29;20042;-51
2023/12/31 07:39:42;;;;;;;41.03;29.90;;;17.30;85.80;;;;;;4953369;28;20038;-51
2023/12/31 07:42:08;;;;;;;32.10;25.83;;;17.50;90.30;;;;;;4954825;29;20399;-56
2023/12/31 07:44:33;;;;;;;34.10;25.70;;;18.10;86.20;;;;;;4954010;29;20035;-55
2023/12/31 07:46:59;;;;;;;32.42;25.40;;;18.20;87.10;;;;;;4918431;29;20039;-55
2023/12/31 07:49:26;;;;;;;32.95;25.55;;;;;;;;;;4920462;29;20150;-54
2023/12/31 07:51:52;;;;;;;29.67;23.85;;;;;;;;;;4954589;29;20477;-53
2023/12/31 07:54:17;;;;;;;34.25;24.67;;;18.60;84.10;;;;;;4954533;29;20040;-54
2023/12/31 07:56:44;;;;;;;30.95;24.42;;;17.10;85.40;;;;;;4954307;29;20035;-54
2023/12/31 07:59:10;;;;;;;29.80;24.75;;;;;;;;;;4954244;29;20798;-50
2023/12/31 08:01:36;;;;;;;23.73;19.10;;;;;;;;;;4953935;29;20023;-52
2023/12/31 08:04:02;;;;;;;22.63;18.65;;;;;;;;;;4954563;29;20035;-50
2023/12/31 08:06:28;;;;;;;22.40;18.08;;;16.60;88.90;;;;;;4953605;29;20050;-51
2023/12/31 08:08:54;;;;;;;20.60;17.52;;;;;;;;;;4953833;29;20494;-52
2023/12/31 08:11:21;;;;;;;25.30;18.50;;;;;;;;;;4952966;29;20027;-52
2023/12/31 08:13:48;;;;;;;21.20;17.60;;;;;;;;;;4954331;29;20039;-50
2023/12/31 08:16:14;;;;;;;23.27;19.17;;;22.20;82.50;;;;;;4954627;29;20083;-48
2023/12/31 08:18:39;;;;;;;23.95;18.80;;;22.30;81.30;;;;;;4954179;29;20460;-52
2023/12/31 08:21:06;;;;;;;22.20;18.88;;;;;;;;;;4954404;29;20472;-53
2023/12/31 08:23:32;;;;;;;23.70;19.92;;;;;;;;;;4954220;29;20032;-52
2023/12/31 08:25:58;;;;;;;25.20;19.35;;;24.00;79.30;;;;;;4954149;29;20042;-55
2023/12/31 08:28:24;;;;;;;29.92;22.65;;;;;;;;;;4954501;29;20062;-51
2023/12/31 08:30:52;;;;;;;89.05;43.70;;;25.60;92.50;;;;;;4954128;29;20031;-50
2023/12/31 08:33:18;;;;;;;25.58;19.55;;;;;;;;;;4954173;29;20043;-50
2023/12/31 08:35:44;;;;;;;53.17;27.30;;;;;;;;;;4953863;29;20097;-52
2023/12/31 08:38:10;;;;;;;336.27;137.50;;;;;;;;;;4954402;29;20039;-52
2023/12/31 08:40:36;;;;;;;136.95;57.58;;;27.10;93.40;;;;;;4954036;29;20510;-49
2023/12/31 08:43:03;;;;;;;26.42;20.48;;;;;;;;;;4953730;29;20035;-54
2023/12/31 08:45:29;;;;;;;28.15;23.08;;;27.40;74.00;;;;;;4953911;29;20372;-52
2023/12/31 08:47:55;;;;;;;47.75;39.00;;;;;;;;;;4954077;29;20047;-50
2023/12/31 08:50:21;;;;;;;37.42;32.58;;;26.50;99.90;;;;;;4954204;28;20035;-49
2023/12/31 08:52:47;;;;;;;32.63;28.20;;;25.20;74.60;;;;;;4953430;29;20086;-49
2023/12/31 08:55:14;;;;;;;28.15;25.20;;;26.20;75.00;;;;;;4954144;29;20387;-50
2023/12/31 08:57:47;;;;;;;29.80;26.48;;;;;;;;;;4953959;29;20759;-51
2023/12/31 09:00:13;;;;;;;21.38;19.20;;;26.90;73.60;;;;;;4953789;29;20142;-51
2023/12/31 09:02:40;;;;;;;18.83;16.95;;;;;;;;;;4931949;29;20080;-51
2023/12/31 09:05:06;;;;;;;21.15;18.95;;;26.00;92.00;;;;;;4931792;29;20047;-52
2023/12/31 09:07:34;;;;;;;20.63;18.42;;;26.10;74.40;;;;;;4931880;29;20079;-52
2023/12/31 09:10:04;;;;;;;22.58;20.20;;;24.80;74.80;;;;;;4931829;29;20039;-49
2023/12/31 09:12:30;;;;;;;23.08;19.10;;;23.70;76.30;;;;;;4931978;29;20115;-49
2023/12/31 09:14:56;;;;;;;21.27;19.15;;;;;;;;;;4931618;29;20055;-50
2023/12/31 09:17:22;;;;;;;20.58;18.25;;;26.20;75.10;;;;;;4931873;29;20032;-53
2023/12/31 09:19:48;;;;;;;19.65;17.75;;;25.20;75.90;;;;;;4931786;29;20042;-50
2023/12/31 09:22:14;;;;;;;20.30;18.08;;;25.60;76.10;;;;;;4931760;29;20122;-51
2023/12/31 09:24:40;;;;;;;20.27;18.23;;;;;;;;;;4931757;29;20573;-50
2023/12/31 09:27:09;;;;;;;19.20;17.30;;;;;;;;;;4899602;29;20551;-50
2023/12/31 09:29:35;;;;;;;17.85;16.13;;;27.40;94.80;;;;;;4931167;29;20043;-53
2023/12/31 09:32:01;;;;;;;15.73;13.98;;;28.30;74.70;;;;;;4931429;29;20035;-49
2023/12/31 09:34:27;;;;;;;14.43;12.88;;;;;;;;;;4899687;29;20134;-52
2023/12/31 09:36:53;;;;;;;13.93;12.40;;;;;;;;;;4931307;29;20381;-53
2023/12/31 09:39:19;;;;;;;15.13;13.63;;;;;;;;;;4935109;29;20078;-53
2023/12/31 09:41:49;;;;;;;15.13;13.57;;;;;;;;;;4952501;29;20027;-52
2023/12/31 09:44:18;;;;;;;16.88;15.18;;;;;;;;;;4949886;29;20111;-54
2023/12/31 09:47:09;;;;;;;16.45;14.77;;;28.50;72.30;;;;;;4918903;29;20051;-52
2023/12/31 09:49:35;;;;;;;15.80;14.25;;;27.40;72.40;;;;;;4918785;29;20058;-52
2023/12/31 09:52:03;;;;;;;14.32;12.18;;;;;;;;;;4953161;29;20039;-51
2023/12/31 09:54:32;;;;;;;15.15;13.80;;;27.80;99.80;;;;;;4953192;29;20483;-53
2023/12/31 09:56:59;;;;;;;17.70;16.00;;;;;;;;;;4918552;29;20071;-50
2023/12/31 09:59:27;;;;;;;18.35;16.67;;;27.00;99.20;;;;;;4952935;29;20043;-51
2023/12/31 10:01:59;;;;;;;18.98;17.08;;;26.70;74.20;;;;;;4952703;29;20070;-50
2023/12/31 10:04:26;;;;;;;18.63;16.63;;;26.50;75.60;;;;;;4952088;29;20031;-48
2023/12/31 10:06:53;;;;;;;15.13;13.60;;;;;;;;;;4952888;29;20039;-52
2023/12/31 10:09:20;;;;;;;15.05;13.57;;;;;;;;;;4952205;29;20035;-52
2023/12/31 10:11:46;;;;;;;13.05;11.85;;;;;;;;;;4952814;29;20442;-49
2023/12/31 10:14:13;;;;;;;14.82;13.15;;;;;;;;;;4952830;29;20075;-52
2023/12/31 10:16:46;;;;;;;14.88;13.38;;;;;;;;;;4952567;29;20047;-53
2023/12/31 10:19:13;;;;;;;13.63;12.40;;;;;;;;;;4952608;28;20097;-53
2023/12/31 10:21:40;;;;;;;17.65;14.98;;;26.70;73.80;;;;;;4952843;29;20098;-51
2023/12/31 10:24:06;;;;;;;21.88;18.50;;;26.80;74.30;;;;;;4952806;28;20058;-53
2023/12/31 10:26:31;;;;;;;15.70;14.10;;;26.80;95.80;;;;;;4950108;29;20499;-55
2023/12/31 10:28:58;;;;;;;15.55;13.38;;;;;;;;;;4952690;28;20779;-53
2023/12/31 10:31:28;;;;;;;13.00;11.70;;;;;;;;;;4952396;29;20028;-51
2023/12/31 10:33:53;;;;;;;20.40;18.25;;;27.50;74.20;;;;;;4951996;29;20034;-53
2023/12/31 10:36:23;;;;;;;20.60;18.40;;;;;;;;;;4951855;29;20407;-52
2023/12/31 10:38:50;;;;;;;18.73;16.73;;;;;;;;;;4950205;29;20503;-51
2023/12/31 10:41:20;;;;;;;16.67;14.85;;;;;;;;;;4951644;29;20031;-51
2023/12/31 10:43:50;;;;;;;20.30;18.20;;;29.70;94.50;;;;;;4951831;29;20684;-51
2023/12/31 10:46:17;;;;;;;17.35;15.40;;;;;;;;;;4950550;29;20070;-51
2023/12/31 10:49:08;;;;;;;25.17;22.70;;;29.10;92.10;;;;;;4951223;29;20039;-54
2023/12/31 10:51:37;;;;;;;17.80;14.68;;;29.00;93.80;;;;;;4950918;28;20035;-52
2023/12/31 10:54:06;;;;;;;18.63;14.50;;;29.30;94.00;;;;;;4951149;28;20046;-55
2023/12/31 10:56:32;;;;;;;14.68;13.18;;;;;;;;;;4921422;29;20099;-53
2023/12/31 10:58:59;;;;;;;13.27;11.98;;;;;;;;;;4951337;29;20042;-51
2023/12/31 11:01:26;;;;;;;14.05;12.43;;;;;;;;;;4950796;29;20133;-53
2023/12/31 11:03:53;;;;;;;12.13;10.93;;;;;;;;;;4951640;29;20815;-54
2023/12/31 11:06:19;;;;;;;12.02;10.90;;;;;;;;;;4951127;29;20035;-50
2023/12/31 11:08:46;;;;;;;14.45;11.50;;;;;;;;;;4951166;29;20035;-51
2023/12/31 11:11:15;;;;;;;11.25;10.15;;;;;;;;;;4951416;29;20449;-53
2023/12/31 11:13:42;;;;;;;10.38;9.30;;;;;;;;;;4950879;28;20031;-51
2023/12/31 11:16:15;;;;;;;11.30;10.07;;;;;;;;;;4953897;29;20380;-50
2023/12/31 11:18:47;;;;;;;12.15;10.65;;;;;;;;;;4953989;29;20045;-53
2023/12/31 11:21:21;;;;;;;12.50;10.88;;;;;;;;;;4954035;29;20042;-51
2023/12/31 11:23:50;;;;;;;10.73;9.63;;;;;;;;;;4954768;29;20051;-54
2023/12/31 11:26:16;;;;;;;11.38;10.18;;;;;;;;;;4953448;29;20474;-54
2023/12/31 11:28:49;;;;;;;9.20;8.02;;;;;;;;;;4954552;29;20122;-53
2023/12/31 11:31:15;;;;;;;8.50;7.63;;;;;;;;;;4953830;29;20390;-50
2023/12/31 11:33:41;;;;;;;9.85;8.60;;;;;;;;;;4919977;29;20681;-54
2023/12/31 11:36:14;;;;;;;8.93;7.10;;;;;;;;;;4954152;29;20045;-52
2023/12/31 11:39:00;;;;;;;10.38;6.68;;;;;;;;;;4954125;29;20027;-55
2023/12/31 11:41:27;;;;;;;8.20;7.40;;;;;;;;;;4945764;29;20042;-51
2023/12/31 11:43:54;;;;;;;9.80;7.78;;;;;;;;;;4953412;28;20023;-51
2023/12/31 11:46:34;;;;;;;8.07;7.28;;;;;;;;;;4953314;29;20046;-51
2023/12/31 11:49:01;;;;;;;9.27;7.45;;;;;;;;;;4954029;29;20125;-51
2023/12/31 11:51:55;;;;;;;8.10;7.30;;;27.20;95.80;;;;;;4935723;29;20035;-53
2023/12/31 11:54:22;;;;;;;10.10;8.95;;;;;;;;;;4935639;29;20122;-51
2023/12/31 11:56:48;;;;;;;9.75;8.50;;;;;;;;;;4953834;29;20105;-52
2023/12/31 11:59:16;;;;;;;9.05;8.10;;;;;;;;;;4953904;29;20035;-53
2023/12/31 12:01:48;;;;;;;9.70;8.52;;;;;;;;;;4953305;29;20031;-53
2023/12/31 12:04:14;;;;;;;6.68;5.93;;;;;;;;;;4953845;28;20533;-51
2023/12/31 12:06:40;;;;;;;5.70;5.10;;;27.10;79.90;;;;;;4953618;29;20527;-54
2023/12/31 12:09:06;;;;;;;6.80;6.10;;;;;;;;;;4953884;29;20035;-54
2023/12/31 12:11:33;;;;;;;7.22;6.15;;;;;;;;;;4946674;29;20498;-51
2023/12/31 12:14:02;;;;;;;8.35;7.38;;;;;;;;;;4950085;29;20058;-50
2023/12/31 12:16:28;;;;;;;8.13;7.32;;;;;;;;;;4952942;28;20364;-53
2023/12/31 12:19:03;;;;;;;10.02;7.93;;;25.20;97.80;;;;;;4952745;29;20565;-54
2023/12/31 12:21:30;;;;;;;8.93;7.10;;;;;;;;;;4934286;29;20039;-50
2023/12/31 12:23:56;;;;;;;9.63;7.43;;;;;;;;;;4934428;29;20106;-51
2023/12/31 12:26:22;;;;;;;8.30;7.35;;;;;;;;;;4947681;28;20074;-52
2023/12/31 12:28:49;;;;;;;9.88;7.68;;;;;;;;;;4953758;28;20031;-53
2023/12/31 12:31:15;;;;;;;9.73;7.15;;;;;;;;;;4953592;29;20035;-54
2023/12/31 12:33:44;;;;;;;11.95;8.60;;;;;;;;;;4953015;28;20038;-54
2023/12/31 12:36:10;;;;;;;7.60;6.18;;;22.70;99.90;;;;;;4953122;29;20039;-50
2023/12/31 12:38:37;;;;;;;6.97;5.90;;;;;;;;;;4934724;29;20525;-51
2023/12/31 12:41:04;;;;;;;8.40;6.22;;;21.90;78.60;;;;;;4953310;29;20027;-50
2023/12/31 12:43:33;;;;;;;6.97;5.80;;;;;;;;;;4919244;29;20048;-51
2023/12/31 12:46:06;;;;;;;9.70;7.60;;;;;;;;;;4953399;29;20055;-51
2023/12/31 12:48:33;;;;;;;8.68;6.90;;;;;;;;;;4952430;29;20483;-54
2023/12/31 12:51:00;;;;;;;7.68;6.28;;;20.80;80.60;;;;;;4918591;29;20039;-51
2023/12/31 12:53:26;;;;;;;11.80;6.82;;;;;;;;;;4953178;29;20343;-50
2023/12/31 12:55:52;;;;;;;8.80;7.90;;;;;;;;;;4952281;29;20082;-54
2023/12/31 12:58:18;;;;;;;9.05;7.93;;;;;;;;;;4890557;29;20094;-52
2023/12/31 13:00:44;;;;;;;19.48;16.40;;;;;;;;;;4950767;28;20055;-53
2023/12/31 13:03:10;;;;;;;14.63;12.75;;;;;;;;;;4952144;29;20035;-50
2023/12/31 13:05:36;;;;;;;9.18;6.10;;;20.30;81.10;;;;;;4899866;29;20027;-52
2023/12/31 13:08:03;;;;;;;8.98;7.47;;;20.20;81.50;;;;;;4911978;29;20402;-52